Monroe, MI (48162)

12:56 AM EST on February 11, 2016 (GMT -0500)
Munson Park Area | | Change Station
CLOSE
Current Station
Personal Weather Station
Location: Monroe, MI
Elevation: 597 ft
Nearby Weather Stations

Elev 597 ft 41.93 °N, 83.44 °W | Updated 19 seconds ago

Clear
Clear
12.9 °F
Feels Like 13 °F
N
0.0
Wind Variable Wind from West
Gusts 0.0 mph

Today
High -- | Low -- °F
--% Chance of Precip.
Yesterday
High -- | Low -- °F
Precip. -- in
Pressure 30.04 in
Visibility 10.0 miles
Clouds Clear
Windchill 13 °F
Dew Point -2 °F
Humidity 51%
Rainfall 0.00 in
Snow Depth Not available.
7:35 AM 6:00 PM
Waxing Crescent, 9% visible
METAR KTTF 110534Z AUTO 29006KT 10SM CLR M10/M15 A3004 RMK AO2 T11041155
Pressure 30.04 in
Visibility 10.0 miles
Clouds Clear
Windchill 13 °F
Dew Point -2 °F
Humidity 51%
Rainfall 0.00 in
Snow Depth Not available.
7:35 AM 6:00 PM
Waxing Crescent, 9% visible
METAR KTTF 110534Z AUTO 29006KT 10SM CLR M10/M15 A3004 RMK AO2 T11041155

10-Day Weather Forecast

Almanac

Astronomy

Feb. 11, 2016 Rise Set
Actual Time
Civil Twilight
Nautical Twilight
Astronomical Twilight
Moon
Length of Visible Light
Length of Day
Tomorrow will be .
, % of the Moon is Illuminated

Today's Extremes

State Highs State Lows

Community

WunderPhotos

Upload Photos

1,892,023 photos uploaded!

WunderBlog® & News

Nearby

Air Quality

  Air Quality AQ Index Pollutant
Not available.

Snow Depth

Station Depth Elevation

Earthquake Activity

City Distance Mag. Time & Date
Minimum magnitude displayed is 2.5.

Coastal Water Temperatures

Place Temperature

Stations

Nearby Weather Stations

Station Location Temp. Windchill Dew Point Humidity Wind Precip. Elev Updated Type
                   

Watches & Warnings

There are currently no watches in effect.